createdAt,value
2023-02-09T00:00:24.877Z,4.80
2023-02-09T00:01:56.841Z,5.30
2023-02-09T00:03:29.211Z,5.20
2023-02-09T00:05:01.932Z,5.10
2023-02-09T00:06:33.744Z,4.50
2023-02-09T00:08:05.481Z,5.20
2023-02-09T00:09:37.427Z,4.60
2023-02-09T00:11:18.719Z,4.80
2023-02-09T00:13:08.926Z,5.00
2023-02-09T00:14:40.686Z,5.10
2023-02-09T00:16:13.205Z,5.30
2023-02-09T00:17:44.985Z,5.10
2023-02-09T00:19:17.742Z,5.40
2023-02-09T00:21:01.793Z,5.30
2023-02-09T00:22:34.499Z,4.60
2023-02-09T00:24:07.333Z,5.10
2023-02-09T00:25:39.982Z,5.10
2023-02-09T00:27:11.714Z,4.80
2023-02-09T00:28:43.409Z,5.00
2023-02-09T00:30:15.129Z,5.10
2023-02-09T00:31:51.291Z,4.60
2023-02-09T00:33:23.245Z,5.20
2023-02-09T00:34:54.976Z,4.80
2023-02-09T00:36:27.757Z,5.50
2023-02-09T00:37:59.497Z,5.00
2023-02-09T00:39:31.762Z,5.10
2023-02-09T00:41:04.876Z,4.80
2023-02-09T00:42:36.651Z,5.00
2023-02-09T00:44:10.022Z,4.80
2023-02-09T00:45:41.801Z,5.20
2023-02-09T00:47:13.573Z,6.50
2023-02-09T00:48:45.330Z,5.00
2023-02-09T00:50:17.117Z,4.90
2023-02-09T00:51:49.011Z,5.20
2023-02-09T00:53:22.594Z,5.20
2023-02-09T00:54:54.261Z,4.80
2023-02-09T00:56:26.065Z,5.80
2023-02-09T00:57:57.743Z,6.00
2023-02-09T00:59:29.465Z,5.30
2023-02-09T01:01:01.184Z,5.40
2023-02-09T01:02:33.844Z,5.30
2023-02-09T01:04:05.915Z,4.80
2023-02-09T01:05:43.891Z,5.40
2023-02-09T01:07:16.696Z,5.90
2023-02-09T01:08:48.604Z,4.50
2023-02-09T01:10:20.597Z,5.90
2023-02-09T01:11:52.339Z,5.00
2023-02-09T01:13:24.418Z,5.80
2023-02-09T01:14:56.660Z,4.40
2023-02-09T01:16:31.751Z,5.70
2023-02-09T01:18:03.773Z,4.80
2023-02-09T01:19:36.294Z,4.50
2023-02-09T01:21:14.510Z,4.60
2023-02-09T01:22:46.258Z,4.40
2023-02-09T01:24:18.365Z,4.40
2023-02-09T01:25:50.239Z,4.40
2023-02-09T01:27:21.986Z,4.30
2023-02-09T01:28:54.379Z,4.50
2023-02-09T01:30:27.412Z,3.50
2023-02-09T01:32:00.086Z,4.20
2023-02-09T01:33:32.295Z,5.10
2023-02-09T01:35:04.452Z,5.60
2023-02-09T01:36:36.185Z,4.90
2023-02-09T01:38:07.948Z,4.90
2023-02-09T01:39:40.093Z,5.30
2023-02-09T01:41:12.335Z,4.80
2023-02-09T01:42:44.023Z,5.40
2023-02-09T01:44:15.623Z,5.00
2023-02-09T01:45:51.707Z,5.70
2023-02-09T01:47:23.489Z,5.80
2023-02-09T01:49:07.565Z,5.70
2023-02-09T01:50:44.967Z,5.50
2023-02-09T01:52:23.476Z,5.20
2023-02-09T01:53:56.182Z,5.20
2023-02-09T01:55:33.914Z,5.30
2023-02-09T01:57:12.245Z,5.40
2023-02-09T01:58:46.673Z,4.70
2023-02-09T02:00:21.962Z,5.10
2023-02-09T02:01:53.816Z,5.10
2023-02-09T02:03:28.615Z,4.30
2023-02-09T02:05:00.716Z,5.30
2023-02-09T02:06:32.994Z,5.90
2023-02-09T02:08:14.736Z,5.10
2023-02-09T02:09:46.779Z,5.80
2023-02-09T02:11:19.605Z,5.50
2023-02-09T02:12:54.451Z,5.60
2023-02-09T02:14:33.711Z,4.90
2023-02-09T02:16:29.778Z,6.00
2023-02-09T02:18:22.984Z,5.40
2023-02-09T02:20:36.940Z,5.40
2023-02-09T02:23:02.782Z,5.20
2023-02-09T02:25:05.288Z,5.40
2023-02-09T02:26:55.816Z,4.50
2023-02-09T02:29:01.316Z,5.20
2023-02-09T02:31:01.170Z,4.50
2023-02-09T02:32:59.890Z,5.20
2023-02-09T02:34:45.849Z,5.00
2023-02-09T02:36:38.884Z,5.50
2023-02-09T02:39:00.052Z,5.30
2023-02-09T02:40:40.798Z,6.00
2023-02-09T02:42:38.668Z,5.90
2023-02-09T02:44:18.453Z,5.70
2023-02-09T02:46:01.995Z,5.50
2023-02-09T02:47:41.356Z,5.40
2023-02-09T02:49:23.666Z,5.50
2023-02-09T02:51:21.031Z,4.90
2023-02-09T02:52:57.393Z,5.50
2023-02-09T02:54:35.339Z,4.60
2023-02-09T02:56:24.185Z,5.50
2023-02-09T02:58:02.869Z,5.40
2023-02-09T02:59:44.223Z,5.60
2023-02-09T03:01:22.744Z,5.30
2023-02-09T03:03:03.922Z,5.30
2023-02-09T03:04:38.236Z,5.70
2023-02-09T03:06:12.484Z,6.00
2023-02-09T03:07:44.478Z,5.20
2023-02-09T03:09:18.601Z,5.20
2023-02-09T03:10:51.314Z,5.30
2023-02-09T03:12:49.272Z,5.70
2023-02-09T03:20:21.612Z,5.80
2023-02-09T03:22:01.144Z,5.10
2023-02-09T03:23:59.343Z,3.90
2023-02-09T03:25:40.464Z,4.90
2023-02-09T03:27:31.814Z,5.50
2023-02-09T03:29:04.875Z,4.90
2023-02-09T03:30:42.394Z,5.40
2023-02-09T03:32:17.362Z,5.50
2023-02-09T03:33:50.537Z,5.30
2023-02-09T03:35:27.895Z,5.80
2023-02-09T03:36:59.587Z,5.80
2023-02-09T03:38:31.286Z,5.90
2023-02-09T03:40:03.318Z,5.50
2023-02-09T03:41:35.018Z,5.50
2023-02-09T03:43:07.053Z,5.30
2023-02-09T03:44:38.837Z,5.40
2023-02-09T03:46:10.570Z,5.30
2023-02-09T03:47:42.284Z,5.10
2023-02-09T03:49:14.989Z,5.20
2023-02-09T03:50:46.959Z,5.30
2023-02-09T03:52:18.969Z,5.50
2023-02-09T03:53:50.826Z,5.20
2023-02-09T03:55:22.491Z,4.80
2023-02-09T03:56:54.263Z,5.90
2023-02-09T03:58:26.040Z,6.20
2023-02-09T03:59:57.713Z,4.60
2023-02-09T04:01:29.520Z,5.50
2023-02-09T04:03:01.544Z,5.70
2023-02-09T04:04:33.527Z,5.60
2023-02-09T04:06:06.018Z,6.10
2023-02-09T04:07:37.930Z,5.80
2023-02-09T04:09:11.398Z,5.70
2023-02-09T04:10:43.375Z,5.20
2023-02-09T04:12:15.292Z,5.60
2023-02-09T04:13:46.974Z,5.20
2023-02-09T04:15:18.654Z,5.30
2023-02-09T04:16:50.659Z,5.70
2023-02-09T04:18:22.423Z,5.60
2023-02-09T04:19:54.280Z,6.20
2023-02-09T04:21:26.059Z,5.80
2023-02-09T04:22:57.793Z,6.10
2023-02-09T04:24:29.495Z,5.40
2023-02-09T04:26:01.229Z,5.70
2023-02-09T04:27:33.080Z,6.00
2023-02-09T04:29:05.014Z,6.40
2023-02-09T04:30:36.868Z,5.70
2023-02-09T04:32:08.629Z,5.50
2023-02-09T04:33:40.567Z,5.10
2023-02-09T04:35:12.304Z,6.40
2023-02-09T04:36:44.508Z,5.40
2023-02-09T04:38:19.518Z,5.30
2023-02-09T04:39:51.268Z,5.90
2023-02-09T04:41:23.138Z,5.40
2023-02-09T04:42:54.832Z,6.40
2023-02-09T04:44:26.603Z,6.20
2023-02-09T04:45:58.636Z,5.60
2023-02-09T04:47:30.368Z,5.70
2023-02-09T04:49:02.225Z,6.00
2023-02-09T04:50:34.315Z,6.00
2023-02-09T04:52:06.053Z,6.30
2023-02-09T04:53:37.834Z,5.90
2023-02-09T04:55:09.610Z,6.00
2023-02-09T04:56:41.348Z,6.20
2023-02-09T04:58:35.318Z,6.50
2023-02-09T05:00:08.144Z,6.30
2023-02-09T05:01:39.876Z,5.30
2023-02-09T05:03:11.617Z,6.30
2023-02-09T05:04:43.397Z,6.30
2023-02-09T05:06:15.217Z,5.10
2023-02-09T05:07:47.022Z,6.00
2023-02-09T05:09:18.688Z,6.90
2023-02-09T05:10:52.640Z,5.60
2023-02-09T05:12:24.360Z,6.40
2023-02-09T05:13:56.467Z,6.40
2023-02-09T05:15:28.735Z,6.20
2023-02-09T05:17:00.624Z,6.90
2023-02-09T05:18:32.382Z,4.90
2023-02-09T05:20:04.926Z,6.30
2023-02-09T05:21:36.650Z,6.70
2023-02-09T05:23:08.445Z,6.30
2023-02-09T05:24:40.609Z,6.80
2023-02-09T05:26:12.385Z,7.00
2023-02-09T05:27:44.118Z,7.00
2023-02-09T05:29:15.863Z,5.80
2023-02-09T05:30:53.642Z,6.20
2023-02-09T05:32:25.659Z,5.80
2023-02-09T05:33:57.451Z,4.90
2023-02-09T05:35:29.124Z,6.20
2023-02-09T05:37:00.830Z,5.50
2023-02-09T05:38:32.502Z,6.40
2023-02-09T05:40:05.294Z,6.30
2023-02-09T05:41:55.608Z,6.00
2023-02-09T05:43:27.315Z,6.30
2023-02-09T05:44:59.233Z,6.50
2023-02-09T05:46:31.166Z,7.40
2023-02-09T05:48:03.213Z,6.40
2023-02-09T05:49:34.997Z,6.40
2023-02-09T05:51:06.760Z,6.90
2023-02-09T05:52:38.483Z,6.70
2023-02-09T05:54:10.414Z,6.30
2023-02-09T05:55:43.480Z,6.80
2023-02-09T05:57:16.966Z,7.00
2023-02-09T05:58:48.905Z,7.20
2023-02-09T06:00:20.977Z,7.30
2023-02-09T06:01:52.958Z,7.30
2023-02-09T06:03:24.749Z,7.30
2023-02-09T06:04:56.504Z,5.60
2023-02-09T06:06:28.251Z,5.90
2023-02-09T06:07:59.978Z,6.00
2023-02-09T06:09:31.855Z,7.10
2023-02-09T06:11:06.050Z,7.00
2023-02-09T06:12:37.781Z,6.10
2023-02-09T06:14:10.234Z,6.90
2023-02-09T06:15:42.001Z,6.70
2023-02-09T06:17:13.791Z,7.10
2023-02-09T06:18:45.690Z,7.50
2023-02-09T06:20:17.670Z,6.90
2023-02-09T06:21:49.590Z,7.70
2023-02-09T06:23:21.268Z,6.60
2023-02-09T06:24:53.053Z,6.20
2023-02-09T06:26:24.909Z,7.00
2023-02-09T06:27:56.643Z,7.60
2023-02-09T06:29:28.612Z,7.20
2023-02-09T06:31:00.902Z,7.00
2023-02-09T06:32:32.789Z,6.50
2023-02-09T06:34:05.805Z,7.40
2023-02-09T06:35:37.496Z,7.10
2023-02-09T06:37:09.270Z,7.40
2023-02-09T06:38:41.308Z,7.50
2023-02-09T06:40:13.251Z,7.40
2023-02-09T06:41:44.948Z,7.00
2023-02-09T06:43:17.489Z,7.50
2023-02-09T06:44:49.191Z,6.90
2023-02-09T06:46:20.936Z,7.30
2023-02-09T06:47:52.918Z,8.10
2023-02-09T06:49:26.437Z,7.80
2023-02-09T06:50:58.418Z,7.90
2023-02-09T06:52:30.427Z,8.40
2023-02-09T06:54:02.160Z,7.50
2023-02-09T06:55:34.522Z,8.00
2023-02-09T06:57:06.299Z,6.40
2023-02-09T06:58:39.590Z,7.40
2023-02-09T07:00:13.211Z,8.10
2023-02-09T07:01:45.075Z,7.90
2023-02-09T07:03:16.761Z,7.40
2023-02-09T07:04:48.505Z,7.70
2023-02-09T07:06:21.345Z,7.90
2023-02-09T07:07:53.471Z,7.70
2023-02-09T07:09:25.353Z,7.10
2023-02-09T07:10:57.057Z,6.50
2023-02-09T07:12:28.947Z,7.40
2023-02-09T07:14:00.778Z,7.80
2023-02-09T07:15:32.477Z,6.90
2023-02-09T07:17:04.319Z,8.00
2023-02-09T07:18:37.105Z,9.70
2023-02-09T07:20:10.077Z,11.20
2023-02-09T07:21:41.857Z,11.40
2023-02-09T07:23:13.512Z,9.30
2023-02-09T07:24:45.221Z,9.60
2023-02-09T07:26:18.381Z,8.70
2023-02-09T07:27:50.139Z,7.40
2023-02-09T07:29:21.830Z,9.90
2023-02-09T07:30:53.808Z,10.60
2023-02-09T07:32:27.619Z,9.60
2023-02-09T07:33:59.563Z,6.10
2023-02-09T07:35:31.317Z,7.70
2023-02-09T07:37:04.738Z,6.60
2023-02-09T07:38:38.726Z,7.60
2023-02-09T07:40:11.212Z,7.10
2023-02-09T07:41:42.981Z,6.50
2023-02-09T07:43:14.713Z,5.00
2023-02-09T07:44:46.467Z,7.80
2023-02-09T07:46:21.330Z,8.00
2023-02-09T07:47:53.166Z,8.10
2023-02-09T07:49:24.862Z,9.30
2023-02-09T07:50:57.337Z,9.00
2023-02-09T07:52:29.172Z,9.10
2023-02-09T07:54:01.289Z,8.90
2023-02-09T07:55:33.018Z,7.30
2023-02-09T07:57:04.750Z,7.30
2023-02-09T07:58:37.074Z,8.70
2023-02-09T08:00:09.924Z,10.10
2023-02-09T08:01:46.879Z,8.50
2023-02-09T08:03:23.177Z,8.40
2023-02-09T08:05:00.295Z,8.70
2023-02-09T08:06:46.396Z,7.10
2023-02-09T08:08:18.077Z,9.40
2023-02-09T08:09:49.777Z,9.00
2023-02-09T08:11:28.615Z,7.30
2023-02-09T08:13:02.049Z,8.10
2023-02-09T08:14:43.509Z,7.70
2023-02-09T08:16:21.027Z,8.00
2023-02-09T08:17:57.451Z,6.50
2023-02-09T08:19:29.449Z,7.30
2023-02-09T08:21:01.270Z,7.40
2023-02-09T08:22:41.317Z,7.90
2023-02-09T08:24:16.785Z,7.40
2023-02-09T08:25:51.528Z,7.80
2023-02-09T08:27:23.475Z,6.90
2023-02-09T08:28:56.889Z,9.30
2023-02-09T08:30:28.969Z,7.00
2023-02-09T08:32:00.965Z,6.80
2023-02-09T08:33:32.705Z,8.10
2023-02-09T08:35:05.242Z,8.80
2023-02-09T08:36:37.598Z,7.10
2023-02-09T08:38:09.911Z,15.00
2023-02-09T08:39:41.685Z,9.90
2023-02-09T08:41:17.138Z,8.40
2023-02-09T08:42:48.918Z,8.30
2023-02-09T08:44:20.654Z,8.20
2023-02-09T08:45:52.531Z,10.00
2023-02-09T08:47:24.408Z,10.50
2023-02-09T08:48:56.178Z,9.10
2023-02-09T08:50:27.955Z,6.90
2023-02-09T08:51:59.703Z,7.90
2023-02-09T08:53:31.857Z,8.80
2023-02-09T08:55:04.662Z,6.60
2023-02-09T08:56:36.481Z,7.50
2023-02-09T08:58:08.237Z,7.30
2023-02-09T08:59:40.200Z,8.50
2023-02-09T09:01:13.464Z,7.70
2023-02-09T09:02:45.300Z,8.20
2023-02-09T09:04:17.136Z,6.70
2023-02-09T09:05:49.240Z,6.90
2023-02-09T09:07:21.174Z,6.40
2023-02-09T09:08:53.475Z,7.70
2023-02-09T09:10:25.258Z,6.90
2023-02-09T09:11:57.052Z,6.30
2023-02-09T09:13:29.268Z,7.30
2023-02-09T09:15:01.337Z,8.40
2023-02-09T09:16:33.128Z,7.90
2023-02-09T09:18:04.803Z,8.00
2023-02-09T09:19:36.587Z,8.20
2023-02-09T09:21:08.321Z,7.70
2023-02-09T09:22:40.057Z,6.20
2023-02-09T09:24:11.862Z,5.20
2023-02-09T09:25:43.967Z,7.00
2023-02-09T09:27:16.249Z,7.10
2023-02-09T09:28:53.516Z,6.50
2023-02-09T09:30:25.649Z,6.40
2023-02-09T09:31:57.428Z,7.90
2023-02-09T09:33:29.156Z,7.10
2023-02-09T09:35:02.203Z,7.60
2023-02-09T09:36:33.868Z,7.50
2023-02-09T09:38:05.588Z,6.10
2023-02-09T09:39:37.420Z,6.80
2023-02-09T09:41:34.471Z,5.70
2023-02-09T09:43:22.862Z,5.40
2023-02-09T09:44:57.833Z,7.20
2023-02-09T09:46:44.756Z,6.70
2023-02-09T09:48:40.757Z,7.90
2023-02-09T09:50:26.407Z,6.50
2023-02-09T09:52:05.763Z,7.30
2023-02-09T09:53:39.880Z,6.30
2023-02-09T09:55:24.039Z,5.50
2023-02-09T09:56:56.840Z,7.10
2023-02-09T09:58:32.065Z,7.70
2023-02-09T10:00:38.039Z,6.40
2023-02-09T10:02:34.494Z,5.90
2023-02-09T10:04:13.954Z,6.40
2023-02-09T10:05:50.787Z,6.40
2023-02-09T10:07:32.319Z,6.10
2023-02-09T10:09:22.008Z,7.30
2023-02-09T10:10:59.922Z,7.20
2023-02-09T10:12:38.594Z,7.60
2023-02-09T10:14:10.780Z,6.90
2023-02-09T10:15:53.665Z,6.60
2023-02-09T10:17:25.452Z,7.50
2023-02-09T10:19:32.793Z,6.50
2023-02-09T10:21:08.567Z,6.60
2023-02-09T10:22:45.644Z,6.40
2023-02-09T10:24:34.587Z,7.10
2023-02-09T10:26:08.866Z,6.80
2023-02-09T10:27:46.956Z,6.90
2023-02-09T10:29:22.778Z,4.20
2023-02-09T10:31:00.287Z,6.00
2023-02-09T10:32:43.526Z,5.60
2023-02-09T10:34:25.314Z,4.90
2023-02-09T10:36:01.001Z,7.00
2023-02-09T10:37:39.692Z,5.70
2023-02-09T10:39:11.408Z,5.70
2023-02-09T10:40:44.606Z,6.50
2023-02-09T10:42:22.740Z,6.00
2023-02-09T10:43:54.601Z,6.40
2023-02-09T10:45:41.920Z,7.00
2023-02-09T10:47:19.432Z,4.40
2023-02-09T10:48:51.147Z,6.30
2023-02-09T10:50:22.922Z,6.30
2023-02-09T10:52:07.139Z,4.90
2023-02-09T10:54:06.175Z,5.70
2023-02-09T10:55:42.282Z,6.00
2023-02-09T10:57:31.048Z,6.10
2023-02-09T10:59:16.805Z,6.10
2023-02-09T11:01:01.891Z,5.60
2023-02-09T11:02:37.298Z,6.20
2023-02-09T11:04:23.141Z,5.10
2023-02-09T11:05:59.461Z,5.50
2023-02-09T11:07:41.530Z,6.30
2023-02-09T11:09:19.051Z,5.90
2023-02-09T11:11:30.498Z,6.20
2023-02-09T11:13:02.721Z,4.40
2023-02-09T11:14:34.466Z,4.80
2023-02-09T11:16:27.257Z,6.90
2023-02-09T11:18:21.043Z,5.60
2023-02-09T11:20:19.522Z,6.00
2023-02-09T11:22:13.341Z,5.60
2023-02-09T11:24:00.869Z,4.90
2023-02-09T11:25:57.400Z,6.00
2023-02-09T11:27:51.113Z,5.20
2023-02-09T11:29:45.386Z,6.20
2023-02-09T11:32:13.710Z,5.20
2023-02-09T11:34:18.829Z,6.40
2023-02-09T11:36:26.773Z,5.00
2023-02-09T11:38:17.567Z,5.60
2023-02-09T11:40:21.035Z,4.80
2023-02-09T11:42:20.270Z,6.00
2023-02-09T11:43:54.997Z,5.90
2023-02-09T11:45:56.716Z,5.60
2023-02-09T11:47:44.635Z,6.00
2023-02-09T11:49:25.992Z,5.40
2023-02-09T11:51:08.448Z,5.30
2023-02-09T11:52:51.622Z,6.10
2023-02-09T11:54:30.137Z,6.20
2023-02-09T11:56:10.879Z,6.30
2023-02-09T11:57:53.204Z,6.40
2023-02-09T11:59:41.908Z,5.00
2023-02-09T12:01:29.837Z,5.10
2023-02-09T12:03:11.865Z,6.20
2023-02-09T12:05:00.403Z,5.10
2023-02-09T12:06:40.842Z,6.00
2023-02-09T12:08:58.311Z,6.60
2023-02-09T12:10:34.275Z,6.90
2023-02-09T12:12:30.241Z,5.70
2023-02-09T12:14:28.569Z,6.20
2023-02-09T12:16:13.637Z,4.50
2023-02-09T12:17:56.420Z,6.30
2023-02-09T12:19:36.386Z,5.00
2023-02-09T12:21:09.019Z,4.60
2023-02-09T12:22:52.113Z,5.20
2023-02-09T12:24:40.340Z,5.40
2023-02-09T12:26:12.113Z,6.20
2023-02-09T12:28:17.729Z,6.10
2023-02-09T12:29:49.512Z,6.30
2023-02-09T12:31:27.140Z,5.90
2023-02-09T12:33:24.431Z,5.80
2023-02-09T12:34:56.486Z,6.30
2023-02-09T12:36:33.302Z,6.30
2023-02-09T12:38:21.352Z,6.30
2023-02-09T12:40:10.139Z,5.10
2023-02-09T12:41:42.083Z,5.60
2023-02-09T12:43:27.944Z,5.80
2023-02-09T12:45:00.584Z,5.60
2023-02-09T12:46:32.361Z,6.70
2023-02-09T12:48:10.046Z,6.80
2023-02-09T12:49:43.784Z,6.00
2023-02-09T12:51:37.377Z,6.60
2023-02-09T12:53:27.273Z,6.20
2023-02-09T12:54:59.093Z,6.70
2023-02-09T12:56:33.278Z,5.30
2023-02-09T12:58:37.692Z,7.00
2023-02-09T13:00:09.350Z,6.80
2023-02-09T13:02:08.629Z,6.00
2023-02-09T13:04:03.836Z,6.00
2023-02-09T13:05:41.874Z,6.30
2023-02-09T13:07:45.157Z,5.30
2023-02-09T13:09:34.966Z,4.10
2023-02-09T13:11:25.800Z,5.30
2023-02-09T13:13:11.745Z,5.30
2023-02-09T13:14:49.450Z,5.40
2023-02-09T13:16:24.006Z,6.30
2023-02-09T13:18:32.977Z,5.80
2023-02-09T13:20:36.033Z,5.50
2023-02-09T13:22:39.804Z,5.20
2023-02-09T13:24:18.097Z,4.30
2023-02-09T13:25:49.826Z,5.60
2023-02-09T13:27:24.424Z,6.00
2023-02-09T13:29:20.832Z,5.50
2023-02-09T13:30:53.647Z,6.20
2023-02-09T13:33:02.750Z,5.90
2023-02-09T13:35:04.614Z,6.40
2023-02-09T13:36:58.760Z,4.30
2023-02-09T13:38:34.621Z,6.10
2023-02-09T13:40:19.135Z,6.10
2023-02-09T13:41:53.752Z,5.10
2023-02-09T13:43:33.449Z,4.60
2023-02-09T13:45:18.313Z,5.60
2023-02-09T13:47:00.563Z,5.40
2023-02-09T13:48:39.145Z,4.90
2023-02-09T13:50:21.464Z,5.80
2023-02-09T13:52:16.392Z,6.40
2023-02-09T13:54:02.618Z,6.60
2023-02-09T13:55:40.811Z,5.80
2023-02-09T13:57:42.087Z,6.60
2023-02-09T13:59:17.596Z,5.60
2023-02-09T14:00:58.425Z,5.90
2023-02-09T14:02:30.410Z,4.60
2023-02-09T14:04:19.714Z,5.00
2023-02-09T14:06:43.621Z,6.10
2023-02-09T14:08:18.257Z,4.90
2023-02-09T14:09:58.045Z,6.80
2023-02-09T14:11:42.949Z,4.80
2023-02-09T14:13:49.966Z,6.00
2023-02-09T14:16:02.151Z,4.80
2023-02-09T14:17:38.911Z,3.90
2023-02-09T14:19:31.881Z,6.20
2023-02-09T14:21:23.843Z,5.80
2023-02-09T14:23:01.412Z,5.20
2023-02-09T14:24:44.489Z,5.70
2023-02-09T14:26:29.274Z,5.40
2023-02-09T14:28:00.990Z,5.80
2023-02-09T14:29:36.355Z,5.80
2023-02-09T14:31:20.732Z,6.10
2023-02-09T14:32:57.802Z,6.00
2023-02-09T14:34:37.205Z,5.70
2023-02-09T14:36:32.957Z,5.80
2023-02-09T14:38:05.661Z,6.20
2023-02-09T14:40:01.278Z,6.60
2023-02-09T14:41:37.217Z,6.50
2023-02-09T14:43:08.875Z,5.40
2023-02-09T14:45:21.748Z,7.00
2023-02-09T14:47:00.331Z,5.60
2023-02-09T14:48:32.148Z,5.90
2023-02-09T14:50:06.673Z,6.80
2023-02-09T14:51:38.393Z,5.90
2023-02-09T14:53:14.788Z,6.30
2023-02-09T14:54:50.661Z,6.40
2023-02-09T14:56:34.365Z,6.40
2023-02-09T14:58:28.123Z,6.40
2023-02-09T14:59:59.955Z,5.30
2023-02-09T15:01:32.128Z,7.30
2023-02-09T15:03:04.168Z,6.30
2023-02-09T15:04:36.388Z,6.10
2023-02-09T15:06:08.426Z,6.30
2023-02-09T15:07:45.796Z,5.70
2023-02-09T15:09:36.462Z,6.50
2023-02-09T15:11:36.426Z,6.00
2023-02-09T15:13:15.170Z,5.80
2023-02-09T15:14:47.840Z,6.70
2023-02-09T15:16:20.587Z,6.50
2023-02-09T15:17:55.175Z,5.80
2023-02-09T15:19:28.268Z,6.60
2023-02-09T15:21:00.023Z,6.50
2023-02-09T15:22:32.594Z,4.90
2023-02-09T15:24:04.639Z,6.40
2023-02-09T15:25:38.751Z,6.70
2023-02-09T15:27:37.905Z,8.00
2023-02-09T15:29:15.655Z,4.30
2023-02-09T15:30:47.528Z,6.20
2023-02-09T15:32:21.943Z,6.40
2023-02-09T15:33:53.716Z,6.90
2023-02-09T15:35:28.445Z,7.20
2023-02-09T15:37:01.656Z,6.00
2023-02-09T15:38:33.568Z,6.30
2023-02-09T15:40:14.406Z,5.20
2023-02-09T15:42:04.676Z,6.70
2023-02-09T15:43:55.192Z,6.70
2023-02-09T15:45:48.256Z,6.40
2023-02-09T15:47:38.473Z,6.40
2023-02-09T15:49:10.244Z,5.70
2023-02-09T15:50:48.093Z,6.40
2023-02-09T15:52:20.174Z,5.40
2023-02-09T15:53:56.294Z,6.30
2023-02-09T15:55:28.194Z,7.50
2023-02-09T15:57:01.163Z,7.20
2023-02-09T15:58:37.729Z,6.50
2023-02-09T16:00:20.631Z,6.00
2023-02-09T16:01:52.566Z,7.60
2023-02-09T16:03:24.399Z,5.80
2023-02-09T16:04:56.326Z,6.60
2023-02-09T16:06:28.799Z,6.40
2023-02-09T16:08:00.574Z,6.80
2023-02-09T16:09:34.702Z,7.50
2023-02-09T16:11:18.203Z,7.10
2023-02-09T16:12:50.364Z,6.10
2023-02-09T16:14:26.263Z,7.10
2023-02-09T16:16:07.983Z,6.30
2023-02-09T16:17:47.428Z,5.80
2023-02-09T16:19:21.085Z,7.40
2023-02-09T16:20:53.568Z,6.80
2023-02-09T16:22:25.388Z,9.30
2023-02-09T16:24:01.787Z,7.30
2023-02-09T16:25:33.984Z,7.50
2023-02-09T16:27:17.804Z,7.10
2023-02-09T16:28:52.066Z,8.60
2023-02-09T16:30:30.589Z,10.00
2023-02-09T16:32:02.269Z,7.90
2023-02-09T16:33:35.440Z,8.20
2023-02-09T16:35:16.601Z,7.60
2023-02-09T16:36:50.015Z,6.90
2023-02-09T16:38:24.007Z,9.10
2023-02-09T16:39:58.204Z,9.90
2023-02-09T16:41:48.177Z,8.40
2023-02-09T16:43:21.422Z,8.50
2023-02-09T16:44:53.609Z,6.80
2023-02-09T16:46:25.884Z,6.90
2023-02-09T16:47:59.639Z,8.50
2023-02-09T16:49:33.368Z,7.50
2023-02-09T16:51:06.262Z,7.10
2023-02-09T16:52:39.502Z,7.20
2023-02-09T16:54:11.276Z,7.40
2023-02-09T16:55:48.076Z,7.70
2023-02-09T16:57:26.906Z,8.00
2023-02-09T16:58:59.473Z,8.00
2023-02-09T17:00:36.863Z,8.10
2023-02-09T17:02:36.175Z,10.00
2023-02-09T17:04:13.823Z,7.70
2023-02-09T17:05:56.637Z,7.80
2023-02-09T17:07:48.801Z,7.50
2023-02-09T17:09:25.194Z,6.90
2023-02-09T17:10:58.259Z,7.80
2023-02-09T17:12:30.069Z,8.20
2023-02-09T17:14:01.956Z,7.90
2023-02-09T17:15:44.200Z,5.80
2023-02-09T17:17:21.837Z,8.10
2023-02-09T17:19:01.666Z,7.00
2023-02-09T17:20:42.961Z,7.30
2023-02-09T17:22:18.053Z,7.30
2023-02-09T17:23:51.972Z,7.00
2023-02-09T17:25:26.322Z,7.00
2023-02-09T17:26:58.260Z,7.90
2023-02-09T17:28:30.167Z,7.40
2023-02-09T17:30:09.818Z,7.70
2023-02-09T17:31:52.904Z,9.70
2023-02-09T17:33:33.458Z,7.70
2023-02-09T17:35:16.002Z,8.10
2023-02-09T17:36:48.173Z,7.50
2023-02-09T17:38:28.157Z,7.80
2023-02-09T17:39:59.922Z,7.90
2023-02-09T17:41:38.361Z,9.20
2023-02-09T17:43:10.203Z,9.30
2023-02-09T17:44:46.785Z,7.00
2023-02-09T17:46:19.888Z,8.80
2023-02-09T17:47:58.008Z,7.20
2023-02-09T17:49:30.405Z,7.90
2023-02-09T17:51:02.984Z,8.30
2023-02-09T17:52:34.894Z,7.80
2023-02-09T17:54:16.428Z,4.60
2023-02-09T17:55:49.859Z,6.90
2023-02-09T17:57:21.803Z,7.70
2023-02-09T17:58:53.573Z,8.30
2023-02-09T18:00:27.517Z,6.60
2023-02-09T18:01:59.485Z,5.60
2023-02-09T18:03:31.261Z,4.70
2023-02-09T18:05:04.007Z,5.90
2023-02-09T18:06:40.773Z,7.50
2023-02-09T18:08:12.830Z,8.90
2023-02-09T18:09:44.764Z,6.80
2023-02-09T18:12:38.599Z,8.30
2023-02-09T18:14:19.290Z,7.50
2023-02-09T18:16:02.571Z,6.80
2023-02-09T18:17:36.704Z,6.60
2023-02-09T18:19:12.671Z,6.40
2023-02-09T18:22:45.827Z,5.90
2023-02-09T18:24:20.998Z,7.50
2023-02-09T18:25:52.878Z,6.50
2023-02-09T18:27:25.613Z,7.60
2023-02-09T18:28:57.919Z,7.40
2023-02-09T18:30:34.075Z,9.20
2023-02-09T18:32:06.847Z,9.60
2023-02-09T18:33:38.715Z,7.80
2023-02-09T18:35:22.353Z,7.30
2023-02-09T18:36:54.513Z,12.80
2023-02-09T18:38:26.242Z,11.10
2023-02-09T18:39:57.976Z,9.40
2023-02-09T18:41:29.790Z,9.40
2023-02-09T18:43:04.225Z,8.10
2023-02-09T18:44:36.115Z,11.00
2023-02-09T18:46:10.634Z,11.40
2023-02-09T18:47:43.778Z,9.30
2023-02-09T18:49:15.561Z,9.80
2023-02-09T18:50:47.473Z,9.60
2023-02-09T18:52:25.176Z,10.70
2023-02-09T18:54:00.351Z,9.90
2023-02-09T18:55:35.280Z,9.90
2023-02-09T18:57:07.098Z,8.30
2023-02-09T18:58:38.993Z,6.60
2023-02-09T19:00:20.024Z,8.30
2023-02-09T19:01:52.789Z,8.60
2023-02-09T19:03:29.193Z,8.20
2023-02-09T19:05:03.086Z,9.00
2023-02-09T19:06:36.090Z,5.60
2023-02-09T19:08:08.189Z,9.50
2023-02-09T19:09:40.691Z,8.30
2023-02-09T19:11:17.920Z,8.10
2023-02-09T19:12:49.990Z,6.70
2023-02-09T19:14:37.287Z,8.50
2023-02-09T19:16:12.603Z,9.60
2023-02-09T19:17:45.781Z,8.60
2023-02-09T19:19:19.149Z,10.00
2023-02-09T19:20:50.927Z,8.10
2023-02-09T19:22:22.792Z,9.30
2023-02-09T19:23:54.825Z,8.40
2023-02-09T19:25:29.417Z,8.40
2023-02-09T19:27:01.361Z,7.90
2023-02-09T19:28:35.185Z,8.00
2023-02-09T19:30:09.633Z,8.20
2023-02-09T19:31:41.659Z,7.80
2023-02-09T19:33:13.794Z,8.70
2023-02-09T19:34:46.116Z,7.30
2023-02-09T19:36:17.891Z,8.50
2023-02-09T19:37:54.767Z,9.10
2023-02-09T19:39:27.314Z,7.50
2023-02-09T19:41:10.344Z,8.50
2023-02-09T19:42:43.624Z,9.00
2023-02-09T19:44:15.974Z,8.40
2023-02-09T19:45:57.628Z,9.20
2023-02-09T19:47:29.315Z,8.70
2023-02-09T19:49:02.083Z,7.60
2023-02-09T19:50:37.095Z,8.70
2023-02-09T19:52:09.068Z,9.50
2023-02-09T19:53:41.054Z,8.50
2023-02-09T19:55:15.793Z,10.50
2023-02-09T19:56:47.799Z,9.60
2023-02-09T19:58:23.719Z,7.70
2023-02-09T19:59:55.533Z,9.00
2023-02-09T20:01:27.763Z,11.00
2023-02-09T20:02:59.819Z,11.70
2023-02-09T20:04:34.751Z,9.80
2023-02-09T20:06:10.824Z,9.80
2023-02-09T20:07:43.740Z,10.30
2023-02-09T20:09:16.522Z,10.70
2023-02-09T20:10:48.696Z,10.80
2023-02-09T20:12:22.054Z,10.90
2023-02-09T20:13:54.758Z,10.90
2023-02-09T20:15:26.762Z,9.70
2023-02-09T20:16:58.719Z,8.90
2023-02-09T20:18:30.469Z,11.30
2023-02-09T20:20:04.162Z,11.40
2023-02-09T20:21:35.896Z,10.90
2023-02-09T20:23:08.318Z,8.70
2023-02-09T20:24:40.191Z,9.30
2023-02-09T20:26:22.767Z,11.20
2023-02-09T20:27:55.611Z,9.50
2023-02-09T20:29:27.420Z,11.30
2023-02-09T20:30:59.221Z,11.10
2023-02-09T20:32:31.129Z,12.10
2023-02-09T20:34:06.649Z,11.80
2023-02-09T20:35:41.061Z,12.40
2023-02-09T20:37:13.295Z,11.90
2023-02-09T20:38:46.893Z,13.30
2023-02-09T20:40:19.253Z,11.20
2023-02-09T20:42:27.206Z,11.10
2023-02-09T20:44:17.594Z,10.70
2023-02-09T20:46:08.233Z,10.90
2023-02-09T20:47:40.136Z,10.80
2023-02-09T20:49:16.831Z,10.90
2023-02-09T20:50:49.009Z,10.60
2023-02-09T20:52:20.994Z,12.40
2023-02-09T20:53:53.821Z,10.80
2023-02-09T20:55:25.708Z,11.60
2023-02-09T20:56:57.875Z,11.70
2023-02-09T20:58:29.717Z,13.20
2023-02-09T21:00:01.677Z,12.60
2023-02-09T21:01:34.498Z,11.90
2023-02-09T21:03:07.409Z,11.20
2023-02-09T21:04:39.095Z,14.00
2023-02-09T21:06:12.742Z,10.50
2023-02-09T21:07:44.790Z,12.50
2023-02-09T21:09:16.572Z,11.30
2023-02-09T21:10:56.630Z,11.00
2023-02-09T21:12:28.399Z,10.30
2023-02-09T21:14:03.014Z,11.30
2023-02-09T21:15:42.250Z,9.50
2023-02-09T21:17:14.670Z,11.40
2023-02-09T21:18:46.766Z,11.10
2023-02-09T21:20:19.070Z,12.40
2023-02-09T21:21:51.674Z,12.60
2023-02-09T21:23:24.115Z,12.60
2023-02-09T21:24:55.912Z,13.90
2023-02-09T21:26:30.101Z,12.50
2023-02-09T21:28:02.428Z,11.20
2023-02-09T21:29:35.683Z,14.40
2023-02-09T21:31:21.476Z,12.20
2023-02-09T21:32:56.339Z,13.30
2023-02-09T21:34:28.387Z,12.60
2023-02-09T21:36:00.202Z,9.50
2023-02-09T21:37:32.870Z,13.00
2023-02-09T21:39:04.565Z,14.70